Binscarth, Canada
Current Conditions -  °F | °C
As of 11:01 PM on Thursday 27 Nov 2014 (Local Time) from CYDN Reporting Station
Light Snow Light Snow  
Wind Chill: -4°   Ceiling: 1800
Heat Index:   Visibility: 9mi
Dew Point:   Wind: 8mph
Humidity: 92%   Direction: 40°NE
Pressure: 30.1"   Gusts: NA
Location:  50.62°N, 101.28°W
Report Text: CYDN 280501Z AUTO 04007KT 9SM -SN OVC018 M13/M14 A3010 RMK SLP222
Loading
Personal Weather Stations






























Interactive Weather Map New forecast layout! Learn more

10-Day Weather Forecast

Advertisements
Track Severe Weather on mobile